Observations for LEEDS AND BRADFORD, United Kingdom (EGNM)

EGNM 190320Z 23009KT 190V270 9999 FEW012 14/12 Q1006
EGNM 190250Z 22008KT 160V250 CAVOK 14/12 Q1006  
EGNM 190220Z 22008KT 180V250 CAVOK 14/12 Q1006  
EGNM 190150Z 22008KT 190V270 CAVOK 14/12 Q1006  
EGNM 190120Z 22007KT 180V260 9999 FEW014 14/12 Q1006
EGNM 190050Z 21007KT 160V240 9999 FEW014 14/12 Q1006
EGNM 190020Z 22009KT 180V250 9999 SCT015 14/12 Q1006
EGNM 182350Z 24009KT 190V260 9999 FEW020 15/12 Q1006
EGNM 182320Z 22012KT 190V260 9999 FEW020 15/13 Q1006
EGNM 182250Z 22010KT 170V270 9999 FEW020 15/12 Q1005
EGNM 182220Z 21011KT 180V250 9999 FEW020 15/13 Q1005
EGNM 182150Z 22012KT 180V240 9999 -RA SCT010 15/13 Q1005
EGNM 182120Z 20010KT 180V240 9999 -RA SCT012 15/14 Q1005
EGNM 182050Z 19010KT 160V240 9999 -RA SCT015 15/14 Q1005
EGNM 182020Z 21012KT 180V240 9999 -SHRA SCT020 16/14 Q1005  
EGNM 181950Z 21013KT 180V240 9999 -SHRA FEW030 SCT040 17/13 Q1005   
EGNM 181920Z 20013G23KT 160V270 9999 FEW030 SCT040 18/12 Q1005  
EGNM 181850Z 22012KT 180V250 9999 SCT035 18/12 Q1005
EGNM 181820Z 22013KT 180V270 9999 SCT035 18/13 Q1005
EGNM 181750Z 21011KT 180V250 9999 SCT030 18/13 Q1004
EGNM 181720Z 22014KT 180V250 9999 SCT030 18/12 Q1004
EGNM 181650Z 22015KT 180V250 9999 FEW028 19/12 Q1004
EGNM 181620Z 23015G28KT 190V260 9999 FEW024 19/12 Q1004 
EGNM 181550Z 22019G30KT 190V250 9999 FEW025 19/13 Q1004 
EGNM 181520Z 22019G30KT 180V250 9999 SCT025 19/13 Q1003 
EGNM 181450Z 22015G26KT 170V280 9999 SCT025 19/13 Q1003 
EGNM 181420Z 23016G26KT 190V260 9999 -DZ SCT024 SCT030 18/13 Q1003  
EGNM 181350Z 23018G30KT 9999 SCT024 SCT030 18/12 Q1003  
EGNM 181320Z 23018G30KT 190V250 9999 SCT028 18/12 Q1003 
EGNM 181250Z 22021G33KT 9999 FEW032 19/11 Q1002 
EGNM 181220Z 22022G35KT 190V250 9999 SCT024 19/12 Q1001 
EGNM 181150Z 23020KT 190V260 9999 FEW016 SCT020 19/13 Q1001 
EGNM 181120Z 23019G30KT 190V280 9999 FEW012 SCT016 18/14 Q1000  
EGNM 181050Z 24016G30KT 190V280 9999 FEW005 SCT010 BKN017 18/14 Q1000   
EGNM 181020Z 23012KT 200V270 6000 -SHRA SCT005 BKN009 17/16 Q0999   
EGNM 180950Z 23012KT 190V290 6000 -SHRA SCT008 BKN012 17/16 Q0999   
EGNM 180920Z 23014KT 180V270 9999 4000W -SHRA SCT008 BKN012 17/16 Q0998 
EGNM 180850Z 23016G26KT 160V290 9999 -SHRA SCT010 BKN012 17/15 Q0997
EGNM 180820Z 23015G26KT 180V280 9999 SCT009 BKN014 17/15 Q0997  
EGNM 180750Z 21015KT 180V270 6000 -RADZ SCT009 BKN012 17/15 Q0996   
EGNM 180720Z 21013G25KT 160V250 8000 -RA SCT010 BKN012 17/15 Q0996  
EGNM 180650Z 20012KT 160V250 6000 -RA FEW009 BKN010 17/15 Q0996 
EGNM 180620Z 16011KT 9999 -RA FEW009 BKN010 16/14 Q0996 
EGNM 180550Z 14009KT 9999 BKN011 15/13 Q0996
EGNM 180520Z 13009KT 9999 BKN012 14/11 Q0997
EGNM 180450Z 13009KT 9999 BKN016 13/11 Q0997
EGNM 180420Z 14008KT 9999 BKN022 13/10 Q0998
EGNM 180350Z 13008KT 9999 SCT032 12/09 Q0998
EGNM 180320Z 12006KT 9999 FEW035 12/09 Q0999
EGNM 180250Z 13004KT 090V170 9999 FEW022 BKN033 12/09 Q1000